Commodore Clipper — C6QQ3 — position and weather

sailwx.info

Track history (hours):
 
Tides and Currents Weather Stations Pressure Air Temp Water Temp Dewpoint Dewpoint Depression Visibility Wind Speed Wind Dir Waves Ship Positions

Commodore Clipper

Operator: Condor Marine Services

Last reported at 2018-May-27 08:00 UTC. Time now 2018-May-27 08:13 UTC.
Position N 50°49' W 001°06'.

Length 130 m; draft 5.5 m.

Type: Ship. MMSI: 308094000.

Date/timePositionNaut miles runAvg speedWind from/ knotsBaromVisibWave heightAir tempDewpointWater temp
2018-May-27 08:00N 50°49' W 001°06'0 0.0
2018-May-27 07:30N 50°49' W 001°06'0 0.0
2018-May-27 07:00N 50°49' W 001°06'0 0.0
2018-May-27 06:30N 50°49' W 001°06'0 0.0
2018-May-27 06:00N 50°49' W 001°06'0 0.0
2018-May-27 05:30N 50°49' W 001°06'1 2.8
2018-May-27 05:00N 50°47' W 001°07'713.1
2018-May-27 04:31N 50°42' W 001°01'713.1
2018-May-27 04:01N 50°36' W 001°05'713.9
2018-May-27 03:29N 50°30' W 001°12'914.9
2018-May-27 02:52N 50°24' W 001°22'5 0.3
2018-May-26 09:53N 50°28' W 001°17'718.9
2018-May-26 09:30N 50°34' W 001°11'918.4
2018-May-26 09:01N 50°42' W 001°03'713.7
2018-May-26 08:31N 50°48' W 001°07'1 2.2
2018-May-26 08:01N 50°49' W 001°06'0 0.0
2018-May-26 07:30N 50°49' W 001°06'0 0.0
2018-May-26 07:01N 50°49' W 001°06'0 0.0
2018-May-26 06:31N 50°49' W 001°06'0 0.0
2018-May-26 05:30N 50°49' W 001°06'2 3.7
2018-May-26 05:00N 50°47' W 001°06'613.0
2018-May-26 04:30N 50°41' W 001°03'816.5
2018-May-26 04:01N 50°34' W 001°11'5416.3
2018-May-26 00:42N 49°49' W 001°57'415.0
2018-May-26 00:28N 49°46' W 002°00'813.5
2018-May-25 23:53N 49°39' W 002°06'1014.3
2018-May-25 23:12N 49°31' W 002°15'315.9
2018-May-25 23:00N 49°30' W 002°19'714.4
2018-May-25 22:30N 49°26' W 002°28'18 5.2
2018-May-25 18:59N 49°10' W 002°13'1 0.3
2018-May-25 15:36N 49°10' W 002°12'214.1
2018-May-25 15:27N 49°10' W 002°15'1812.8
2018-May-25 14:01N 49°28' W 002°14'016.9
2018-May-25 14:00N 49°28' W 002°13'916.7
2018-May-25 13:29N 49°36' W 002°08'917.7
2018-May-25 12:58N 49°45' W 002°02'818.1
2018-May-25 12:30N 49°52' W 001°56'917.7
2018-May-25 12:00N 50°00' W 001°51'1019.2
2018-May-25 11:31N 50°07' W 001°40'1618.8
2018-May-25 10:41N 50°19' W 001°26'1018.5
2018-May-25 10:10N 50°28' W 001°18'318.6
2018-May-25 10:00N 50°30' W 001°15'1019.4
2018-May-25 09:31N 50°38' W 001°06'714.5
2018-May-25 09:01N 50°45' W 001°05'4 7.8
2018-May-25 08:31N 50°49' W 001°06'0 0.1
2018-May-25 08:00N 50°49' W 001°06'0 0.0
2018-May-25 07:30N 50°49' W 001°06'0 0.0
2018-May-25 07:00N 50°49' W 001°06'0 0.0
2018-May-25 06:30N 50°49' W 001°06'0 0.0
2018-May-25 06:00N 50°49' W 001°06'1 2.0
2018-May-25 05:30N 50°48' W 001°07'3 6.6
2018-May-25 05:00N 50°45' W 001°05'4 7.7
2018-May-25 04:31N 50°42' W 001°03'916.9
2018-May-25 04:00N 50°34' W 001°10'714.0
2018-May-25 03:30N 50°28' W 001°15'713.6
2018-May-25 03:00N 50°22' W 001°20'713.2
2018-May-25 02:30N 50°16' W 001°25'612.6
2018-May-25 02:00N 50°11' W 001°31'613.0
2018-May-25 01:30N 50°07' W 001°38'815.7
2018-May-25 01:00N 49°60' W 001°44'714.8
2018-May-25 00:31N 49°54' W 001°50'714.4
2018-May-25 00:01N 49°48' W 001°57'17 1.6
2018-May-24 13:48N 49°33' W 002°09'8217.2
2018-May-24 09:00N 50°45' W 001°05'4 8.4
2018-May-24 08:31N 50°49' W 001°06'0 0.1
2018-May-24 08:01N 50°49' W 001°06'0 0.0
2018-May-24 07:30N 50°49' W 001°06'0 0.0
2018-May-24 07:00N 50°49' W 001°06'0 0.0
2018-May-24 06:31N 50°49' W 001°06'0 0.0
2018-May-24 06:00N 50°49' W 001°06'2 3.7
2018-May-24 05:30N 50°47' W 001°06'713.7
2018-May-24 05:00N 50°40' W 001°04'816.6
2018-May-24 04:30N 50°33' W 001°11'1016.8
2018-May-24 03:54N 50°26' W 001°22'614.0
2018-May-24 03:29N 50°21' W 001°28'613.5
2018-May-24 03:00N 50°16' W 001°33'713.6
2018-May-24 02:30N 50°10' W 001°39'713.6
2018-May-24 02:01N 50°05' W 001°45'713.2
2018-May-24 01:30N 49°59' W 001°49'612.8
2018-May-24 01:00N 49°53' W 001°54'613.0
2018-May-24 00:31N 49°47' W 001°59'38 4.5
2018-May-23 16:06N 49°10' W 002°09'414.3
2018-May-23 15:51N 49°10' W 002°14'614.6
2018-May-23 15:27N 49°14' W 002°21'2015.3
2018-May-23 14:08N 49°33' W 002°10'1413.9
2018-May-23 13:09N 49°45' W 002°01'213.8
2018-May-23 13:01N 49°47' W 001°60'815.4
2018-May-23 12:30N 49°54' W 001°53'816.5
2018-May-23 12:01N 50°00' W 001°46'917.1
2018-May-23 11:30N 50°07' W 001°39'917.6
2018-May-23 11:01N 50°15' W 001°31'1417.8
2018-May-23 10:12N 50°27' W 001°19'318.1
2018-May-23 10:00N 50°30' W 001°15'918.7
2018-May-23 09:30N 50°37' W 001°07'815.8
2018-May-23 09:01N 50°45' W 001°05'4 7.7
2018-May-23 08:31N 50°49' W 001°06'0 0.2
2018-May-23 08:01N 50°49' W 001°06'0 0.0
2018-May-23 07:30N 50°49' W 001°06'0 0.0
2018-May-23 07:01N 50°49' W 001°06'0 0.0
2018-May-23 06:30N 50°49' W 001°06'0 0.0
2018-May-23 06:00N 50°49' W 001°06'0 0.0
2018-May-23 05:31N 50°49' W 001°06'1 2.2
2018-May-23 05:01N 50°48' W 001°07'714.0
2018-May-23 04:31N 50°41' W 001°03'816.9
2018-May-23 04:01N 50°34' W 001°10'1015.5
2018-May-23 03:23N 50°26' W 001°17'512.9
2018-May-23 03:00N 50°21' W 001°21'612.3
2018-May-23 02:30N 50°16' W 001°24'714.0
2018-May-23 02:00N 50°10' W 001°31'918.2
2018-May-23 01:30N 50°03' W 001°40'918.3
2018-May-23 01:00N 49°56' W 001°49'918.5
2018-May-23 00:30N 49°49' W 001°58'20 1.9
2018-May-22 14:06N 49°32' W 002°14'315.5
2018-May-22 13:56N 49°34' W 002°11'615.1
2018-May-22 13:30N 49°39' W 002°07'813.1
2018-May-22 12:56N 49°46' W 002°01'613.6
2018-May-22 12:30N 49°51' W 001°56'714.8
2018-May-22 12:00N 49°56' W 001°49'815.9
2018-May-22 11:31N 50°03' W 001°41'816.6
2018-May-22 11:00N 50°10' W 001°34'817.0
2018-May-22 10:31N 50°16' W 001°26'917.3
2018-May-22 10:00N 50°24' W 001°19'917.4
2018-May-22 09:31N 50°31' W 001°12'918.1
2018-May-22 09:00N 50°38' W 001°02'714.7
2018-May-22 08:30N 50°45' W 001°05'4 7.7
2018-May-22 08:00N 50°49' W 001°06'0 0.0
2018-May-22 07:31N 50°49' W 001°06'0 0.0
2018-May-22 07:00N 50°49' W 001°06'0 0.0
2018-May-22 06:31N 50°49' W 001°06'0 0.0
2018-May-22 06:00N 50°49' W 001°06'0 0.0
2018-May-22 05:30N 50°49' W 001°06'1 2.9
2018-May-22 05:01N 50°47' W 001°07'714.0
2018-May-22 04:30N 50°41' W 001°03'815.7
2018-May-22 04:00N 50°34' W 001°10'916.4
2018-May-22 03:29N 50°27' W 001°18'817.2
2018-May-22 03:00N 50°22' W 001°27'815.2
2018-May-22 02:30N 50°15' W 001°33'612.2
2018-May-22 02:00N 50°09' W 001°37'713.5
2018-May-22 01:30N 50°04' W 001°43'713.9
2018-May-22 01:00N 49°58' W 001°49'714.3
2018-May-22 00:31N 49°52' W 001°55'914.7
2018-May-21 23:53N 49°44' W 002°02'718.5
2018-May-21 23:30N 49°38' W 002°07'918.4
2018-May-21 23:00N 49°29' W 002°12'918.4
2018-May-21 22:31N 49°21' W 002°17'12 3.5
2018-May-21 18:57N 49°11' W 002°07'6 6.4
2018-May-21 18:03N 49°10' W 002°16'1 8.0
2018-May-21 17:55N 49°10' W 002°17'716.8
2018-May-21 17:30N 49°16' W 002°22'917.5
2018-May-21 17:00N 49°24' W 002°28'4 8.2
2018-May-21 16:30N 49°27' W 002°32'0 0.0
2018-May-21 16:00N 49°27' W 002°32'0 0.0
2018-May-21 15:30N 49°27' W 002°32'3 6.8
2018-May-21 14:59N 49°26' W 002°27'817.8
2018-May-21 14:31N 49°31' W 002°16'916.3
2018-May-21 13:58N 49°38' W 002°08'815.0
2018-May-21 13:26N 49°45' W 002°02'614.2
2018-May-21 13:00N 49°50' W 001°58'714.2
2018-May-21 12:30N 49°56' W 001°51'714.8
2018-May-21 12:00N 50°02' W 001°44'815.3
2018-May-21 11:30N 50°08' W 001°37'815.8
2018-May-21 11:00N 50°14' W 001°30'1316.4
2018-May-21 10:14N 50°25' W 001°19'416.4
2018-May-21 09:59N 50°28' W 001°14'816.8
2018-May-21 09:31N 50°34' W 001°07'815.8
2018-May-21 09:00N 50°41' W 001°01'714.7
2018-May-21 08:31N 50°47' W 001°07'1 2.8
2018-May-21 08:00N 50°49' W 001°06'0 0.0
2018-May-21 07:30N 50°49' W 001°06'0 0.0
2018-May-21 07:00N 50°49' W 001°06'0 0.0
2018-May-21 06:30N 50°49' W 001°06'0 0.0
2018-May-21 06:00N 50°49' W 001°06'0 0.0
2018-May-21 05:30N 50°49' W 001°06'0 0.0
2018-May-21 05:00N 50°49' W 001°06'0 0.0
2018-May-21 04:30N 50°49' W 001°06'0 0.0
2018-May-21 04:00N 50°49' W 001°06'0 0.0
2018-May-21 03:30N 50°49' W 001°06'0 0.0
2018-May-21 03:00N 50°49' W 001°06'0 0.0
2018-May-21 02:30N 50°49' W 001°06'0 0.0
2018-May-21 02:00N 50°49' W 001°06'0 0.0
2018-May-21 01:30N 50°49' W 001°06'0 0.0
2018-May-21 01:00N 50°49' W 001°06'0 0.0
2018-May-21 00:30N 50°49' W 001°06'0 0.0
2018-May-21 00:00N 50°49' W 001°06'0 0.0
2018-May-20 23:30N 50°49' W 001°06'0 0.0
2018-May-20 23:00N 50°49' W 001°06'0 0.0
2018-May-20 22:30N 50°49' W 001°06'0 0.0
2018-May-20 22:00N 50°49' W 001°06'0 0.0
2018-May-20 21:30N 50°49' W 001°06'0 0.0
2018-May-20 21:00N 50°49' W 001°06'0 0.0
2018-May-20 20:30N 50°49' W 001°06'0 0.0
2018-May-20 20:00N 50°49' W 001°06'0 0.0
2018-May-20 19:30N 50°49' W 001°06'0 0.0
2018-May-20 19:00N 50°49' W 001°06'0 0.0
2018-May-20 18:30N 50°49' W 001°06'0 0.0
2018-May-20 18:00N 50°49' W 001°06'0 0.0
2018-May-20 17:30N 50°49' W 001°06'0 0.0
2018-May-20 17:00N 50°49' W 001°06'0 0.0
2018-May-20 16:30N 50°49' W 001°06'0 0.0
2018-May-20 16:00N 50°49' W 001°06'0 0.0
2018-May-20 15:30N 50°49' W 001°06'0 0.0
2018-May-20 15:00N 50°49' W 001°06'0 0.0
2018-May-20 14:30N 50°49' W 001°06'0 0.0
2018-May-20 14:00N 50°49' W 001°06'0 0.0
2018-May-20 13:30N 50°49' W 001°06'0 0.0
2018-May-20 13:00N 50°49' W 001°06'0 0.0
2018-May-20 12:30N 50°49' W 001°06'0 0.0
2018-May-20 12:00N 50°49' W 001°06'0 0.0
2018-May-20 11:30N 50°49' W 001°06'0 0.0
2018-May-20 11:00N 50°49' W 001°06'0 0.0
2018-May-20 10:30N 50°49' W 001°06'0 0.0
2018-May-20 10:00N 50°49' W 001°06'0 0.0
2018-May-20 09:30N 50°49' W 001°06'0 0.0
2018-May-20 09:00N 50°49' W 001°06'0 0.0
2018-May-20 08:30N 50°49' W 001°06'0 0.0
2018-May-20 08:00N 50°49' W 001°06'0 0.0
2018-May-20 07:30N 50°49' W 001°06'0 0.0
2018-May-20 07:00N 50°49' W 001°06'0 0.0
2018-May-20 06:30N 50°49' W 001°06'0 0.0
2018-May-20 06:00N 50°49' W 001°06'0 0.0
2018-May-20 05:30N 50°49' W 001°06'2 3.8
2018-May-20 05:00N 50°47' W 001°06'713.7
2018-May-20 04:31N 50°40' W 001°04'714.6
2018-May-20 04:00N 50°33' W 001°08'713.6
2018-May-20 03:30N 50°29' W 001°17'611.4
2018-May-20 03:00N 50°24' W 001°22'611.6
2018-May-20 02:30N 50°19' W 001°26'612.1
2018-May-20 02:01N 50°14' W 001°30'612.7
2018-May-20 01:31N 50°09' W 001°36'713.3
2018-May-20 01:01N 50°03' W 001°41'713.9
2018-May-20 00:31N 49°57' W 001°47'714.4
2018-May-20 00:00N 49°52' W 001°54'815.6
2018-May-19 23:30N 49°45' W 002°01'815.9
2018-May-19 22:59N 49°38' W 002°07'714.8
2018-May-19 22:30N 49°31' W 002°11'815.4
2018-May-19 22:00N 49°24' W 002°15'919.1
2018-May-19 21:31N 49°15' W 002°21'714.1
2018-May-19 21:00N 49°10' W 002°14'5 9.5
2018-May-19 20:30N 49°11' W 002°07'0 0.0
2018-May-19 20:00N 49°11' W 002°07'0 0.0
2018-May-19 19:30N 49°11' W 002°07'0 0.0
2018-May-19 19:00N 49°11' W 002°07'0 0.1
2018-May-19 18:30N 49°11' W 002°07'815.1
2018-May-19 18:00N 49°11' W 002°18'918.7
2018-May-19 17:30N 49°20' W 002°25'917.6
2018-May-19 17:00N 49°27' W 002°31'0 0.8
2018-May-19 16:30N 49°27' W 002°32'0 0.0
2018-May-19 16:00N 49°27' W 002°32'0 0.0
2018-May-19 15:30N 49°27' W 002°32'2 3.2
2018-May-19 15:01N 49°27' W 002°30'816.2
2018-May-19 14:31N 49°30' W 002°18'918.5
2018-May-19 14:00N 49°37' W 002°09'1018.9
2018-May-19 13:29N 49°45' W 002°01'816.7
2018-May-19 13:00N 49°52' W 001°54'815.9
2018-May-19 12:31N 49°58' W 001°47'815.6
2018-May-19 12:00N 50°06' W 001°42'815.2
2018-May-19 11:31N 50°12' W 001°36'714.3
2018-May-19 11:00N 50°17' W 001°28'714.4
2018-May-19 10:31N 50°22' W 001°20'714.8
2018-May-19 10:00N 50°28' W 001°13'714.3
2018-May-19 09:30N 50°34' W 001°07'715.1
2018-May-19 09:00N 50°40' W 001°00'713.4
2018-May-19 08:30N 50°46' W 001°06'2 4.7
2018-May-19 08:00N 50°49' W 001°06'0 0.0
2018-May-19 07:30N 50°49' W 001°06'0 0.0
2018-May-19 07:00N 50°49' W 001°06'0 0.0
2018-May-19 06:30N 50°49' W 001°06'0 0.0
2018-May-19 06:00N 50°49' W 001°06'0 0.0
2018-May-19 05:30N 50°49' W 001°06'1 3.0
2018-May-19 05:01N 50°47' W 001°07'713.7
2018-May-19 04:31N 50°41' W 001°03'714.2
2018-May-19 04:01N 50°35' W 001°09'713.9
2018-May-19 03:30N 50°29' W 001°15'612.8
2018-May-19 03:00N 50°24' W 001°21'510.9
2018-May-19 02:30N 50°20' W 001°25'510.9
2018-May-19 02:00N 50°15' W 001°30'510.6
2018-May-19 01:30N 50°10' W 001°34'612.5
2018-May-19 01:00N 50°05' W 001°39'713.4
2018-May-19 00:30N 49°60' W 001°46'713.7
2018-May-19 00:00N 49°54' W 001°51'815.3
2018-May-18 23:31N 49°48' W 001°58'917.2
2018-May-18 22:58N 49°40' W 002°06'1018.6
2018-May-18 22:26N 49°31' W 002°11'819.4
2018-May-18 22:00N 49°23' W 002°16'918.8
2018-May-18 21:30N 49°14' W 002°21'816.4
2018-May-18 21:01N 49°10' W 002°10'2 2.9
2018-May-18 20:14N 49°11' W 002°07'0 0.0
2018-May-18 19:56N 49°11' W 002°07'0 0.0
2018-May-18 19:26N 49°11' W 002°07'0 0.1
2018-May-18 18:19N 49°11' W 002°07'411.5
2018-May-18 18:00N 49°10' W 002°12'917.8
2018-May-18 17:31N 49°16' W 002°22'918.5
2018-May-18 17:01N 49°24' W 002°28'4 8.0
2018-May-18 16:29N 49°27' W 002°32'0 0.0
2018-May-18 16:00N 49°27' W 002°32'0 0.0
2018-May-18 15:29N 49°27' W 002°32'1 2.1
2018-May-18 15:00N 49°27' W 002°30'510.3
2018-May-18 14:30N 49°28' W 002°22'1019.5
2018-May-18 14:01N 49°34' W 002°11'1020.9
2018-May-18 13:30N 49°44' W 002°04'918.5
2018-May-18 13:01N 49°52' W 001°56'917.0
2018-May-18 12:30N 49°59' W 001°49'816.2
2018-May-18 12:01N 50°05' W 001°41'815.8
2018-May-18 11:31N 50°11' W 001°34'1215.1
2018-May-18 10:42N 50°21' W 001°22'314.8
2018-May-18 10:30N 50°23' W 001°19'714.8
2018-May-18 10:00N 50°29' W 001°12'714.2
2018-May-18 09:30N 50°35' W 001°06'714.6
2018-May-18 09:01N 50°41' W 001°01'714.9
2018-May-18 08:30N 50°48' W 001°07'1 2.3
2018-May-18 08:00N 50°49' W 001°06'0 0.0
2018-May-18 07:30N 50°49' W 001°06'0 0.0
2018-May-18 07:00N 50°49' W 001°06'0 0.0
2018-May-18 06:30N 50°49' W 001°06'0 0.0
2018-May-18 06:00N 50°49' W 001°06'0 0.0
2018-May-18 05:30N 50°49' W 001°06'2 3.4
2018-May-18 05:00N 50°47' W 001°06'713.0
2018-May-18 04:31N 50°41' W 001°03'714.0
2018-May-18 04:01N 50°35' W 001°08'813.6
2018-May-18 03:25N 50°28' W 001°14'4 9.9
2018-May-18 03:00N 50°24' W 001°16'5 9.0
2018-May-18 02:29N 50°20' W 001°20'4 9.2
2018-May-18 02:00N 50°16' W 001°23'510.1
2018-May-18 01:30N 50°11' W 001°26'612.6
2018-May-18 01:00N 50°06' W 001°31'816.1
2018-May-18 00:30N 50°01' W 001°41'816.8
2018-May-18 00:01N 49°56' W 001°50'917.5
2018-May-17 23:30N 49°49' W 001°59'917.9
2018-May-17 22:59N 49°40' W 002°05'1218.2
2018-May-17 22:21N 49°30' W 002°12'719.0
2018-May-17 21:59N 49°23' W 002°16'1117.3
2018-May-17 21:22N 49°13' W 002°20'617.4
2018-May-17 21:01N 49°10' W 002°11'3 1.1
2018-May-17 18:20N 49°11' W 002°07'2 6.0
2018-May-17 18:00N 49°10' W 002°10'816.2
2018-May-17 17:31N 49°14' W 002°20'918.4
2018-May-17 17:01N 49°22' W 002°27'612.6
2018-May-17 16:30N 49°27' W 002°32'0 0.0
2018-May-17 16:00N 49°27' W 002°32'0 0.0
2018-May-17 15:30N 49°27' W 002°32'0 1.0
2018-May-17 15:00N 49°27' W 002°31'3 5.4
2018-May-17 14:30N 49°25' W 002°28'918.5
2018-May-17 14:00N 49°31' W 002°17'1020.0
2018-May-17 13:30N 49°39' W 002°07'1121.5
2018-May-17 13:00N 49°48' W 001°59'918.5
2018-May-17 12:30N 49°56' W 001°51'917.4
2018-May-17 12:00N 50°03' W 001°43'816.7
2018-May-17 11:30N 50°09' W 001°35'816.1
2018-May-17 11:01N 50°16' W 001°28'815.8
2018-May-17 10:31N 50°22' W 001°21'815.2
2018-May-17 10:01N 50°28' W 001°14'714.3
2018-May-17 09:31N 50°34' W 001°07'714.5
2018-May-17 09:01N 50°40' W 001°01'815.5
2018-May-17 08:30N 50°47' W 001°06'  
Track history (hours):
 
Tides and Currents Weather Stations Pressure Air Temp Water Temp Dewpoint Dewpoint Depression Visibility Wind Speed Wind Dir Waves Ship Positions

Commodore Clipper

Operator: Condor Marine Services

Last reported at 2018-May-27 08:00 UTC. Time now 2018-May-27 08:13 UTC.
Position N 50°49' W 001°06'.

Length 130 m; draft 5.5 m.

Type: Ship. MMSI: 308094000.

Date/timePositionNaut miles runAvg speedWind from/ knotsBaromVisibWave heightAir tempDewpointWater temp
2018-May-27 08:00N 50°49' W 001°06'0 0.0
2018-May-27 07:30N 50°49' W 001°06'0 0.0
2018-May-27 07:00N 50°49' W 001°06'0 0.0
2018-May-27 06:30N 50°49' W 001°06'0 0.0
2018-May-27 06:00N 50°49' W 001°06'0 0.0
2018-May-27 05:30N 50°49' W 001°06'1 2.8
2018-May-27 05:00N 50°47' W 001°07'713.1
2018-May-27 04:31N 50°42' W 001°01'713.1
2018-May-27 04:01N 50°36' W 001°05'713.9
2018-May-27 03:29N 50°30' W 001°12'914.9
2018-May-27 02:52N 50°24' W 001°22'5 0.3
2018-May-26 09:53N 50°28' W 001°17'718.9
2018-May-26 09:30N 50°34' W 001°11'918.4
2018-May-26 09:01N 50°42' W 001°03'713.7
2018-May-26 08:31N 50°48' W 001°07'1 2.2
2018-May-26 08:01N 50°49' W 001°06'0 0.0
2018-May-26 07:30N 50°49' W 001°06'0 0.0
2018-May-26 07:01N 50°49' W 001°06'0 0.0
2018-May-26 06:31N 50°49' W 001°06'0 0.0
2018-May-26 05:30N 50°49' W 001°06'2 3.7
2018-May-26 05:00N 50°47' W 001°06'613.0
2018-May-26 04:30N 50°41' W 001°03'816.5
2018-May-26 04:01N 50°34' W 001°11'5416.3
2018-May-26 00:42N 49°49' W 001°57'415.0
2018-May-26 00:28N 49°46' W 002°00'813.5
2018-May-25 23:53N 49°39' W 002°06'1014.3
2018-May-25 23:12N 49°31' W 002°15'315.9
2018-May-25 23:00N 49°30' W 002°19'714.4
2018-May-25 22:30N 49°26' W 002°28'18 5.2
2018-May-25 18:59N 49°10' W 002°13'1 0.3
2018-May-25 15:36N 49°10' W 002°12'214.1
2018-May-25 15:27N 49°10' W 002°15'1812.8
2018-May-25 14:01N 49°28' W 002°14'016.9
2018-May-25 14:00N 49°28' W 002°13'916.7
2018-May-25 13:29N 49°36' W 002°08'917.7
2018-May-25 12:58N 49°45' W 002°02'818.1
2018-May-25 12:30N 49°52' W 001°56'917.7
2018-May-25 12:00N 50°00' W 001°51'1019.2
2018-May-25 11:31N 50°07' W 001°40'1618.8
2018-May-25 10:41N 50°19' W 001°26'1018.5
2018-May-25 10:10N 50°28' W 001°18'318.6
2018-May-25 10:00N 50°30' W 001°15'1019.4
2018-May-25 09:31N 50°38' W 001°06'714.5
2018-May-25 09:01N 50°45' W 001°05'4 7.8
2018-May-25 08:31N 50°49' W 001°06'0 0.1
2018-May-25 08:00N 50°49' W 001°06'0 0.0
2018-May-25 07:30N 50°49' W 001°06'0 0.0
2018-May-25 07:00N 50°49' W 001°06'0 0.0
2018-May-25 06:30N 50°49' W 001°06'0 0.0
2018-May-25 06:00N 50°49' W 001°06'1 2.0
2018-May-25 05:30N 50°48' W 001°07'3 6.6
2018-May-25 05:00N 50°45' W 001°05'4 7.7
2018-May-25 04:31N 50°42' W 001°03'916.9
2018-May-25 04:00N 50°34' W 001°10'714.0
2018-May-25 03:30N 50°28' W 001°15'713.6
2018-May-25 03:00N 50°22' W 001°20'713.2
2018-May-25 02:30N 50°16' W 001°25'612.6
2018-May-25 02:00N 50°11' W 001°31'613.0
2018-May-25 01:30N 50°07' W 001°38'815.7
2018-May-25 01:00N 49°60' W 001°44'714.8
2018-May-25 00:31N 49°54' W 001°50'714.4
2018-May-25 00:01N 49°48' W 001°57'17 1.6
2018-May-24 13:48N 49°33' W 002°09'8217.2
2018-May-24 09:00N 50°45' W 001°05'4 8.4
2018-May-24 08:31N 50°49' W 001°06'0 0.1
2018-May-24 08:01N 50°49' W 001°06'0 0.0
2018-May-24 07:30N 50°49' W 001°06'0 0.0
2018-May-24 07:00N 50°49' W 001°06'0 0.0
2018-May-24 06:31N 50°49' W 001°06'0 0.0
2018-May-24 06:00N 50°49' W 001°06'2 3.7
2018-May-24 05:30N 50°47' W 001°06'713.7
2018-May-24 05:00N 50°40' W 001°04'816.6
2018-May-24 04:30N 50°33' W 001°11'1016.8
2018-May-24 03:54N 50°26' W 001°22'614.0
2018-May-24 03:29N 50°21' W 001°28'613.5
2018-May-24 03:00N 50°16' W 001°33'713.6
2018-May-24 02:30N 50°10' W 001°39'713.6
2018-May-24 02:01N 50°05' W 001°45'713.2
2018-May-24 01:30N 49°59' W 001°49'612.8
2018-May-24 01:00N 49°53' W 001°54'613.0
2018-May-24 00:31N 49°47' W 001°59'38 4.5
2018-May-23 16:06N 49°10' W 002°09'414.3
2018-May-23 15:51N 49°10' W 002°14'614.6
2018-May-23 15:27N 49°14' W 002°21'2015.3
2018-May-23 14:08N 49°33' W 002°10'1413.9
2018-May-23 13:09N 49°45' W 002°01'213.8
2018-May-23 13:01N 49°47' W 001°60'815.4
2018-May-23 12:30N 49°54' W 001°53'816.5
2018-May-23 12:01N 50°00' W 001°46'917.1
2018-May-23 11:30N 50°07' W 001°39'917.6
2018-May-23 11:01N 50°15' W 001°31'1417.8
2018-May-23 10:12N 50°27' W 001°19'318.1
2018-May-23 10:00N 50°30' W 001°15'918.7
2018-May-23 09:30N 50°37' W 001°07'815.8
2018-May-23 09:01N 50°45' W 001°05'4 7.7
2018-May-23 08:31N 50°49' W 001°06'0 0.2
2018-May-23 08:01N 50°49' W 001°06'0 0.0
2018-May-23 07:30N 50°49' W 001°06'0 0.0
2018-May-23 07:01N 50°49' W 001°06'0 0.0
2018-May-23 06:30N 50°49' W 001°06'0 0.0
2018-May-23 06:00N 50°49' W 001°06'0 0.0
2018-May-23 05:31N 50°49' W 001°06'1 2.2
2018-May-23 05:01N 50°48' W 001°07'714.0
2018-May-23 04:31N 50°41' W 001°03'816.9
2018-May-23 04:01N 50°34' W 001°10'1015.5
2018-May-23 03:23N 50°26' W 001°17'512.9
2018-May-23 03:00N 50°21' W 001°21'612.3
2018-May-23 02:30N 50°16' W 001°24'714.0
2018-May-23 02:00N 50°10' W 001°31'918.2
2018-May-23 01:30N 50°03' W 001°40'918.3
2018-May-23 01:00N 49°56' W 001°49'918.5
2018-May-23 00:30N 49°49' W 001°58'20 1.9
2018-May-22 14:06N 49°32' W 002°14'315.5
2018-May-22 13:56N 49°34' W 002°11'615.1
2018-May-22 13:30N 49°39' W 002°07'813.1
2018-May-22 12:56N 49°46' W 002°01'613.6
2018-May-22 12:30N 49°51' W 001°56'714.8
2018-May-22 12:00N 49°56' W 001°49'815.9
2018-May-22 11:31N 50°03' W 001°41'816.6
2018-May-22 11:00N 50°10' W 001°34'817.0
2018-May-22 10:31N 50°16' W 001°26'917.3
2018-May-22 10:00N 50°24' W 001°19'917.4
2018-May-22 09:31N 50°31' W 001°12'918.1
2018-May-22 09:00N 50°38' W 001°02'714.7
2018-May-22 08:30N 50°45' W 001°05'4 7.7
2018-May-22 08:00N 50°49' W 001°06'0 0.0
2018-May-22 07:31N 50°49' W 001°06'0 0.0
2018-May-22 07:00N 50°49' W 001°06'0 0.0
2018-May-22 06:31N 50°49' W 001°06'0 0.0
2018-May-22 06:00N 50°49' W 001°06'0 0.0
2018-May-22 05:30N 50°49' W 001°06'1 2.9
2018-May-22 05:01N 50°47' W 001°07'714.0
2018-May-22 04:30N 50°41' W 001°03'815.7
2018-May-22 04:00N 50°34' W 001°10'916.4
2018-May-22 03:29N 50°27' W 001°18'817.2
2018-May-22 03:00N 50°22' W 001°27'815.2
2018-May-22 02:30N 50°15' W 001°33'612.2
2018-May-22 02:00N 50°09' W 001°37'713.5
2018-May-22 01:30N 50°04' W 001°43'713.9
2018-May-22 01:00N 49°58' W 001°49'714.3
2018-May-22 00:31N 49°52' W 001°55'914.7
2018-May-21 23:53N 49°44' W 002°02'718.5
2018-May-21 23:30N 49°38' W 002°07'918.4
2018-May-21 23:00N 49°29' W 002°12'918.4
2018-May-21 22:31N 49°21' W 002°17'12 3.5
2018-May-21 18:57N 49°11' W 002°07'6 6.4
2018-May-21 18:03N 49°10' W 002°16'1 8.0
2018-May-21 17:55N 49°10' W 002°17'716.8
2018-May-21 17:30N 49°16' W 002°22'917.5
2018-May-21 17:00N 49°24' W 002°28'4 8.2
2018-May-21 16:30N 49°27' W 002°32'0 0.0
2018-May-21 16:00N 49°27' W 002°32'0 0.0
2018-May-21 15:30N 49°27' W 002°32'3 6.8
2018-May-21 14:59N 49°26' W 002°27'817.8
2018-May-21 14:31N 49°31' W 002°16'916.3
2018-May-21 13:58N 49°38' W 002°08'815.0
2018-May-21 13:26N 49°45' W 002°02'614.2
2018-May-21 13:00N 49°50' W 001°58'714.2
2018-May-21 12:30N 49°56' W 001°51'714.8
2018-May-21 12:00N 50°02' W 001°44'815.3
2018-May-21 11:30N 50°08' W 001°37'815.8
2018-May-21 11:00N 50°14' W 001°30'1316.4
2018-May-21 10:14N 50°25' W 001°19'416.4
2018-May-21 09:59N 50°28' W 001°14'816.8
2018-May-21 09:31N 50°34' W 001°07'815.8
2018-May-21 09:00N 50°41' W 001°01'714.7
2018-May-21 08:31N 50°47' W 001°07'1 2.8
2018-May-21 08:00N 50°49' W 001°06'0 0.0
2018-May-21 07:30N 50°49' W 001°06'0 0.0
2018-May-21 07:00N 50°49' W 001°06'0 0.0
2018-May-21 06:30N 50°49' W 001°06'0 0.0
2018-May-21 06:00N 50°49' W 001°06'0 0.0
2018-May-21 05:30N 50°49' W 001°06'0 0.0
2018-May-21 05:00N 50°49' W 001°06'0 0.0
2018-May-21 04:30N 50°49' W 001°06'0 0.0
2018-May-21 04:00N 50°49' W 001°06'0 0.0
2018-May-21 03:30N 50°49' W 001°06'0 0.0
2018-May-21 03:00N 50°49' W 001°06'0 0.0
2018-May-21 02:30N 50°49' W 001°06'0 0.0
2018-May-21 02:00N 50°49' W 001°06'0 0.0
2018-May-21 01:30N 50°49' W 001°06'0 0.0
2018-May-21 01:00N 50°49' W 001°06'0 0.0
2018-May-21 00:30N 50°49' W 001°06'0 0.0
2018-May-21 00:00N 50°49' W 001°06'0 0.0
2018-May-20 23:30N 50°49' W 001°06'0 0.0
2018-May-20 23:00N 50°49' W 001°06'0 0.0
2018-May-20 22:30N 50°49' W 001°06'0 0.0
2018-May-20 22:00N 50°49' W 001°06'0 0.0
2018-May-20 21:30N 50°49' W 001°06'0 0.0
2018-May-20 21:00N 50°49' W 001°06'0 0.0
2018-May-20 20:30N 50°49' W 001°06'0 0.0
2018-May-20 20:00N 50°49' W 001°06'0 0.0
2018-May-20 19:30N 50°49' W 001°06'0 0.0
2018-May-20 19:00N 50°49' W 001°06'0 0.0
2018-May-20 18:30N 50°49' W 001°06'0 0.0
2018-May-20 18:00N 50°49' W 001°06'0 0.0
2018-May-20 17:30N 50°49' W 001°06'0 0.0
2018-May-20 17:00N 50°49' W 001°06'0 0.0
2018-May-20 16:30N 50°49' W 001°06'0 0.0
2018-May-20 16:00N 50°49' W 001°06'0 0.0
2018-May-20 15:30N 50°49' W 001°06'0 0.0
2018-May-20 15:00N 50°49' W 001°06'0 0.0
2018-May-20 14:30N 50°49' W 001°06'0 0.0
2018-May-20 14:00N 50°49' W 001°06'0 0.0
2018-May-20 13:30N 50°49' W 001°06'0 0.0
2018-May-20 13:00N 50°49' W 001°06'0 0.0
2018-May-20 12:30N 50°49' W 001°06'0 0.0
2018-May-20 12:00N 50°49' W 001°06'0 0.0
2018-May-20 11:30N 50°49' W 001°06'0 0.0
2018-May-20 11:00N 50°49' W 001°06'0 0.0
2018-May-20 10:30N 50°49' W 001°06'0 0.0
2018-May-20 10:00N 50°49' W 001°06'0 0.0
2018-May-20 09:30N 50°49' W 001°06'0 0.0
2018-May-20 09:00N 50°49' W 001°06'0 0.0
2018-May-20 08:30N 50°49' W 001°06'0 0.0
2018-May-20 08:00N 50°49' W 001°06'0 0.0
2018-May-20 07:30N 50°49' W 001°06'0 0.0
2018-May-20 07:00N 50°49' W 001°06'0 0.0
2018-May-20 06:30N 50°49' W 001°06'0 0.0
2018-May-20 06:00N 50°49' W 001°06'0 0.0
2018-May-20 05:30N 50°49' W 001°06'2 3.8
2018-May-20 05:00N 50°47' W 001°06'713.7
2018-May-20 04:31N 50°40' W 001°04'714.6
2018-May-20 04:00N 50°33' W 001°08'713.6
2018-May-20 03:30N 50°29' W 001°17'611.4
2018-May-20 03:00N 50°24' W 001°22'611.6
2018-May-20 02:30N 50°19' W 001°26'612.1
2018-May-20 02:01N 50°14' W 001°30'612.7
2018-May-20 01:31N 50°09' W 001°36'713.3
2018-May-20 01:01N 50°03' W 001°41'713.9
2018-May-20 00:31N 49°57' W 001°47'714.4
2018-May-20 00:00N 49°52' W 001°54'815.6
2018-May-19 23:30N 49°45' W 002°01'815.9
2018-May-19 22:59N 49°38' W 002°07'714.8
2018-May-19 22:30N 49°31' W 002°11'815.4
2018-May-19 22:00N 49°24' W 002°15'919.1
2018-May-19 21:31N 49°15' W 002°21'714.1
2018-May-19 21:00N 49°10' W 002°14'5 9.5
2018-May-19 20:30N 49°11' W 002°07'0 0.0
2018-May-19 20:00N 49°11' W 002°07'0 0.0
2018-May-19 19:30N 49°11' W 002°07'0 0.0
2018-May-19 19:00N 49°11' W 002°07'0 0.1
2018-May-19 18:30N 49°11' W 002°07'815.1
2018-May-19 18:00N 49°11' W 002°18'918.7
2018-May-19 17:30N 49°20' W 002°25'917.6
2018-May-19 17:00N 49°27' W 002°31'0 0.8
2018-May-19 16:30N 49°27' W 002°32'0 0.0
2018-May-19 16:00N 49°27' W 002°32'0 0.0
2018-May-19 15:30N 49°27' W 002°32'2 3.2
2018-May-19 15:01N 49°27' W 002°30'816.2
2018-May-19 14:31N 49°30' W 002°18'918.5
2018-May-19 14:00N 49°37' W 002°09'1018.9
2018-May-19 13:29N 49°45' W 002°01'816.7
2018-May-19 13:00N 49°52' W 001°54'815.9
2018-May-19 12:31N 49°58' W 001°47'815.6
2018-May-19 12:00N 50°06' W 001°42'815.2
2018-May-19 11:31N 50°12' W 001°36'714.3
2018-May-19 11:00N 50°17' W 001°28'714.4
2018-May-19 10:31N 50°22' W 001°20'714.8
2018-May-19 10:00N 50°28' W 001°13'714.3
2018-May-19 09:30N 50°34' W 001°07'715.1
2018-May-19 09:00N 50°40' W 001°00'713.4
2018-May-19 08:30N 50°46' W 001°06'2 4.7
2018-May-19 08:00N 50°49' W 001°06'0 0.0
2018-May-19 07:30N 50°49' W 001°06'0 0.0
2018-May-19 07:00N 50°49' W 001°06'0 0.0
2018-May-19 06:30N 50°49' W 001°06'0 0.0
2018-May-19 06:00N 50°49' W 001°06'0 0.0
2018-May-19 05:30N 50°49' W 001°06'1 3.0
2018-May-19 05:01N 50°47' W 001°07'713.7
2018-May-19 04:31N 50°41' W 001°03'714.2
2018-May-19 04:01N 50°35' W 001°09'713.9
2018-May-19 03:30N 50°29' W 001°15'612.8
2018-May-19 03:00N 50°24' W 001°21'510.9
2018-May-19 02:30N 50°20' W 001°25'510.9
2018-May-19 02:00N 50°15' W 001°30'510.6
2018-May-19 01:30N 50°10' W 001°34'612.5
2018-May-19 01:00N 50°05' W 001°39'713.4
2018-May-19 00:30N 49°60' W 001°46'713.7
2018-May-19 00:00N 49°54' W 001°51'815.3
2018-May-18 23:31N 49°48' W 001°58'917.2
2018-May-18 22:58N 49°40' W 002°06'1018.6
2018-May-18 22:26N 49°31' W 002°11'819.4
2018-May-18 22:00N 49°23' W 002°16'918.8
2018-May-18 21:30N 49°14' W 002°21'816.4
2018-May-18 21:01N 49°10' W 002°10'2 2.9
2018-May-18 20:14N 49°11' W 002°07'0 0.0
2018-May-18 19:56N 49°11' W 002°07'0 0.0
2018-May-18 19:26N 49°11' W 002°07'0 0.1
2018-May-18 18:19N 49°11' W 002°07'411.5
2018-May-18 18:00N 49°10' W 002°12'917.8
2018-May-18 17:31N 49°16' W 002°22'918.5
2018-May-18 17:01N 49°24' W 002°28'4 8.0
2018-May-18 16:29N 49°27' W 002°32'0 0.0
2018-May-18 16:00N 49°27' W 002°32'0 0.0
2018-May-18 15:29N 49°27' W 002°32'1 2.1
2018-May-18 15:00N 49°27' W 002°30'510.3
2018-May-18 14:30N 49°28' W 002°22'1019.5
2018-May-18 14:01N 49°34' W 002°11'1020.9
2018-May-18 13:30N 49°44' W 002°04'918.5
2018-May-18 13:01N 49°52' W 001°56'917.0
2018-May-18 12:30N 49°59' W 001°49'816.2
2018-May-18 12:01N 50°05' W 001°41'815.8
2018-May-18 11:31N 50°11' W 001°34'1215.1
2018-May-18 10:42N 50°21' W 001°22'314.8
2018-May-18 10:30N 50°23' W 001°19'714.8
2018-May-18 10:00N 50°29' W 001°12'714.2
2018-May-18 09:30N 50°35' W 001°06'714.6
2018-May-18 09:01N 50°41' W 001°01'714.9
2018-May-18 08:30N 50°48' W 001°07'1 2.3
2018-May-18 08:00N 50°49' W 001°06'0 0.0
2018-May-18 07:30N 50°49' W 001°06'0 0.0
2018-May-18 07:00N 50°49' W 001°06'0 0.0
2018-May-18 06:30N 50°49' W 001°06'0 0.0
2018-May-18 06:00N 50°49' W 001°06'0 0.0
2018-May-18 05:30N 50°49' W 001°06'2 3.4
2018-May-18 05:00N 50°47' W 001°06'713.0
2018-May-18 04:31N 50°41' W 001°03'714.0
2018-May-18 04:01N 50°35' W 001°08'813.6
2018-May-18 03:25N 50°28' W 001°14'4 9.9
2018-May-18 03:00N 50°24' W 001°16'5 9.0
2018-May-18 02:29N 50°20' W 001°20'4 9.2
2018-May-18 02:00N 50°16' W 001°23'510.1
2018-May-18 01:30N 50°11' W 001°26'612.6
2018-May-18 01:00N 50°06' W 001°31'816.1
2018-May-18 00:30N 50°01' W 001°41'816.8
2018-May-18 00:01N 49°56' W 001°50'917.5
2018-May-17 23:30N 49°49' W 001°59'917.9
2018-May-17 22:59N 49°40' W 002°05'1218.2
2018-May-17 22:21N 49°30' W 002°12'719.0
2018-May-17 21:59N 49°23' W 002°16'1117.3
2018-May-17 21:22N 49°13' W 002°20'617.4
2018-May-17 21:01N 49°10' W 002°11'3 1.1
2018-May-17 18:20N 49°11' W 002°07'2 6.0
2018-May-17 18:00N 49°10' W 002°10'816.2
2018-May-17 17:31N 49°14' W 002°20'918.4
2018-May-17 17:01N 49°22' W 002°27'612.6
2018-May-17 16:30N 49°27' W 002°32'0 0.0
2018-May-17 16:00N 49°27' W 002°32'0 0.0
2018-May-17 15:30N 49°27' W 002°32'0 1.0
2018-May-17 15:00N 49°27' W 002°31'3 5.4
2018-May-17 14:30N 49°25' W 002°28'918.5
2018-May-17 14:00N 49°31' W 002°17'1020.0
2018-May-17 13:30N 49°39' W 002°07'1121.5
2018-May-17 13:00N 49°48' W 001°59'918.5
2018-May-17 12:30N 49°56' W 001°51'917.4
2018-May-17 12:00N 50°03' W 001°43'816.7
2018-May-17 11:30N 50°09' W 001°35'816.1
2018-May-17 11:01N 50°16' W 001°28'815.8
2018-May-17 10:31N 50°22' W 001°21'815.2
2018-May-17 10:01N 50°28' W 001°14'714.3
2018-May-17 09:31N 50°34' W 001°07'714.5
2018-May-17 09:01N 50°40' W 001°01'815.5
2018-May-17 08:30N 50°47' W 001°06'  

Dump ship's entire track history